Time;durP1;ratioP1;P1;durP2;ratioP2;P2;SDS_P1;SDS_P2;PMS_P1;PMS_P2;Temp;Humidity;BMP_temperature;BMP_pressure;BME280_temperature;BME280_humidity;BME280_pressure;Samples;Min_cycle;Max_cycle;Signal;HPM_P1;HPM_P2
2022/11/12 00:00:18;;;;;;;4.60;2.40;;;9.60;99.90;;;9.55;100.00;102582.41;5163886;28;20548;-74
2022/11/12 00:03:09;;;;;;;6.03;2.83;;;9.60;99.90;;;9.49;100.00;102573.38;5174351;23;20502;-69
2022/11/12 00:06:00;;;;;;;5.43;2.58;;;9.50;99.90;;;9.47;100.00;102574.06;5152587;28;20062;-69
2022/11/12 00:08:52;;;;;;;4.85;2.50;;;9.50;99.90;;;9.44;100.00;102579.97;5139716;28;20093;-68
2022/11/12 00:11:42;;;;;;;7.03;3.10;;;9.50;99.90;;;9.39;100.00;102578.78;5148151;28;20073;-70
2022/11/12 00:14:33;;;;;;;5.78;3.10;;;9.40;99.90;;;9.34;100.00;102585.34;5147811;28;20716;-69
2022/11/12 00:17:23;;;;;;;6.45;3.28;;;9.40;99.90;;;9.32;100.00;102583.44;5147598;28;20043;-70
2022/11/12 00:20:14;;;;;;;7.15;3.40;;;9.40;99.90;;;9.29;100.00;102578.03;5147711;28;20049;-70
2022/11/12 00:23:05;;;;;;;8.48;3.92;;;9.30;99.90;;;9.25;100.00;102576.91;5161612;28;20058;-70
2022/11/12 00:26:01;;;;;;;8.90;3.67;;;9.40;99.90;;;9.21;100.00;102574.91;5167707;28;20530;-67
2022/11/12 00:28:52;;;;;;;7.22;3.92;;;9.40;99.90;;;9.20;100.00;102581.81;5167477;28;20066;-69
2022/11/12 00:31:42;;;;;;;8.82;3.22;;;9.30;99.90;;;9.16;100.00;102581.50;5167655;28;20061;-69
2022/11/12 00:34:33;;;;;;;8.50;3.55;;;9.30;99.90;;;9.15;100.00;102579.69;5167545;28;20500;-69
2022/11/12 00:37:24;;;;;;;7.50;3.65;;;9.30;99.90;;;9.13;100.00;102586.50;5167266;28;20046;-70
2022/11/12 00:40:15;;;;;;;6.55;3.40;;;9.30;99.90;;;9.13;100.00;102583.91;5167153;28;20058;-69
2022/11/12 00:43:07;;;;;;;7.15;3.45;;;9.30;99.90;;;9.12;100.00;102595.97;5167037;28;20057;-69
2022/11/12 00:45:58;;;;;;;6.53;3.20;;;9.20;99.90;;;9.12;100.00;102585.56;5167230;28;20054;-69
2022/11/12 00:48:48;;;;;;;7.45;3.38;;;9.30;99.90;;;9.12;100.00;102595.06;5167599;28;20046;-69
2022/11/12 00:51:39;;;;;;;7.80;3.53;;;9.20;99.90;;;9.08;100.00;102588.78;5167545;28;20598;-69
2022/11/12 00:54:29;;;;;;;7.03;3.75;;;9.20;99.90;;;9.06;100.00;102589.44;5167010;28;20450;-69
2022/11/12 00:57:20;;;;;;;5.85;2.80;;;9.20;99.90;;;9.05;100.00;102588.53;5167215;28;20177;-69
2022/11/12 01:00:16;;;;;;;4.32;2.83;;;9.20;99.90;;;9.05;100.00;102593.75;5167098;28;20057;-69
2022/11/12 01:03:07;;;;;;;4.93;2.50;;;9.10;99.90;;;9.06;100.00;102599.84;5166845;28;20050;-69
2022/11/12 01:06:03;;;;;;;4.78;2.53;;;9.10;99.90;;;9.02;100.00;102596.16;5166982;28;20531;-69
2022/11/12 01:08:55;;;;;;;4.85;2.17;;;9.10;99.90;;;8.97;100.00;102614.03;5166859;28;20050;-69
2022/11/12 01:11:46;;;;;;;3.75;2.40;;;9.00;99.90;;;8.93;100.00;102598.09;5166904;28;20069;-69
2022/11/12 01:14:37;;;;;;;4.88;2.20;;;9.00;99.90;;;8.90;100.00;102603.09;5166052;28;20073;-69
2022/11/12 01:17:29;;;;;;;3.80;2.28;;;8.90;99.90;;;8.86;100.00;102612.38;5166068;28;20054;-68
2022/11/12 01:20:20;;;;;;;5.22;2.40;;;8.90;99.90;;;8.85;100.00;102610.56;5166621;28;20627;-69
2022/11/12 01:23:10;;;;;;;3.72;2.47;;;8.90;99.90;;;8.82;100.00;102607.75;5166435;28;20054;-70
2022/11/12 01:26:05;;;;;;;5.15;2.30;;;8.90;99.90;;;8.83;100.00;102608.66;5166679;28;20057;-69
2022/11/12 01:28:56;;;;;;;4.82;2.80;;;8.90;99.90;;;8.82;100.00;102605.16;5166502;28;20053;-70
2022/11/12 01:31:47;;;;;;;5.07;2.72;;;8.90;99.90;;;8.83;100.00;102604.38;5166347;28;20050;-69
2022/11/12 01:34:39;;;;;;;6.50;3.05;;;8.90;99.90;;;8.81;100.00;102600.75;5166124;28;20129;-70
2022/11/12 01:37:29;;;;;;;6.07;2.63;;;8.90;99.90;;;8.78;100.00;102602.22;5166330;28;20050;-69
2022/11/12 01:40:20;;;;;;;4.57;2.80;;;8.80;99.90;;;8.75;100.00;102607.22;5166135;28;20108;-70
2022/11/12 01:43:13;;;;;;;5.13;2.97;;;8.80;99.90;;;8.72;100.00;102607.91;5166152;28;20105;-69
2022/11/12 01:46:12;;;;;;;6.22;3.03;;;8.70;99.90;;;8.65;100.00;102600.44;5166256;28;20586;-70
2022/11/12 01:49:06;;;;;;;6.28;2.63;;;8.70;99.90;;;8.60;100.00;102583.63;5165683;28;20072;-69
2022/11/12 01:52:12;;;;;;;6.32;2.38;;;8.70;99.90;;;8.59;100.00;102600.91;5166064;28;20097;-70
2022/11/12 01:55:08;;;;;;;4.25;2.22;;;8.70;99.90;;;8.55;100.00;102598.00;5166010;28;20108;-70
2022/11/12 01:58:05;;;;;;;5.18;2.55;;;8.60;99.90;;;8.53;100.00;102608.28;5165968;28;20549;-69
2022/11/12 02:00:56;;;;;;;5.32;2.90;;;8.60;99.90;;;8.51;100.00;102596.88;5165830;28;20058;-70
2022/11/12 02:03:47;;;;;;;6.18;2.88;;;8.60;99.90;;;8.53;100.00;102603.06;5165928;28;20140;-68
2022/11/12 02:06:39;;;;;;;6.07;3.08;;;8.60;99.90;;;8.55;100.00;102598.00;5165799;28;20069;-69
2022/11/12 02:09:32;;;;;;;6.55;3.00;;;8.60;99.90;;;8.58;100.00;102603.41;5165541;28;20101;-69
2022/11/12 02:15:42;;;;;;;6.05;3.40;;;8.70;99.90;;;8.66;100.00;102597.97;5123269;29;20054;-68
2022/11/12 02:18:33;;;;;;;6.00;2.85;;;8.70;99.90;;;8.68;100.00;102596.38;5165325;28;20057;-71
2022/11/12 02:21:26;;;;;;;5.15;2.60;;;8.70;99.90;;;8.69;100.00;102593.00;5165505;28;20065;-69
2022/11/12 02:24:35;;;;;;;7.57;2.85;;;8.80;99.90;;;8.70;100.00;102593.88;5165510;28;20621;-70
2022/11/12 02:27:26;;;;;;;5.75;2.65;;;8.80;99.90;;;8.67;100.00;102596.25;5146641;28;20520;-69
2022/11/12 02:30:17;;;;;;;6.47;2.85;;;8.80;99.90;;;8.69;100.00;102602.50;5144976;28;20069;-69
2022/11/12 02:33:07;;;;;;;4.95;3.10;;;8.70;99.90;;;8.69;100.00;102599.88;5145107;28;20178;-70
2022/11/12 02:35:58;;;;;;;7.10;3.17;;;8.80;99.90;;;8.63;100.00;102597.75;5144911;28;20093;-69
2022/11/12 02:38:50;;;;;;;6.20;3.20;;;8.70;99.90;;;8.62;100.00;102608.06;5144787;28;20121;-68
2022/11/12 02:41:40;;;;;;;7.03;3.10;;;8.70;99.90;;;8.57;100.00;102606.81;5144946;28;20635;-69
2022/11/12 02:44:32;;;;;;;7.47;3.03;;;8.70;99.90;;;8.53;100.00;102618.66;5145451;28;20062;-69
2022/11/12 02:47:22;;;;;;;5.65;3.13;;;8.70;99.90;;;8.49;100.00;102610.56;5144891;28;20050;-69
2022/11/12 02:50:13;;;;;;;4.68;2.53;;;8.60;99.90;;;8.41;100.00;102607.38;5144527;28;20091;-68
2022/11/12 02:53:04;;;;;;;4.75;2.45;;;8.50;99.90;;;8.32;100.00;102610.19;5144457;28;20427;-69
2022/11/12 02:55:56;;;;;;;6.20;2.30;;;8.40;99.90;;;8.23;100.00;102606.94;5144601;28;20508;-69
2022/11/12 02:58:47;;;;;;;5.38;2.72;;;8.30;99.90;;;8.16;100.00;102607.28;5144647;28;20590;-69
2022/11/12 03:01:37;;;;;;;5.28;2.50;;;8.20;99.90;;;8.11;100.00;102603.44;5144652;28;20047;-68
2022/11/12 03:04:28;;;;;;;5.13;2.47;;;8.20;99.90;;;8.05;100.00;102609.09;5144817;28;20062;-69
2022/11/12 03:07:18;;;;;;;4.43;2.45;;;8.10;99.90;;;8.00;100.00;102604.34;5144428;28;20054;-69
2022/11/12 03:10:09;;;;;;;5.10;2.40;;;8.10;99.90;;;7.95;100.00;102605.69;5144355;28;20054;-69
2022/11/12 03:13:02;;;;;;;3.33;2.08;;;8.00;99.90;;;7.86;100.00;102596.44;5144696;28;20201;-70
2022/11/12 03:16:00;;;;;;;5.55;2.47;;;7.90;99.90;;;7.81;100.00;102591.69;5144280;28;20058;-68
2022/11/12 03:18:51;;;;;;;4.85;2.50;;;7.90;99.90;;;7.76;100.00;102588.78;5144421;28;20408;-68
2022/11/12 03:21:41;;;;;;;4.93;2.50;;;7.90;99.90;;;7.75;100.00;102593.81;5144248;28;20046;-68
2022/11/12 03:24:31;;;;;;;4.15;2.28;;;7.80;99.90;;;7.72;100.00;102593.59;5144331;28;20508;-68
2022/11/12 03:27:22;;;;;;;4.50;2.25;;;7.80;99.90;;;7.68;100.00;102584.69;5144118;28;20057;-71
2022/11/12 03:30:14;;;;;;;5.80;2.47;;;7.80;99.90;;;7.68;100.00;102579.47;5144126;28;20054;-68
2022/11/12 03:33:07;;;;;;;4.53;2.33;;;7.80;99.90;;;7.67;100.00;102588.06;5144514;28;20515;-68
2022/11/12 03:35:58;;;;;;;4.60;2.42;;;7.70;99.90;;;7.63;100.00;102575.66;5143950;28;20429;-70
2022/11/12 03:38:48;;;;;;;4.15;2.00;;;7.70;99.90;;;7.59;100.00;102571.91;5143104;28;20498;-68
2022/11/12 03:41:39;;;;;;;5.85;2.53;;;7.70;99.90;;;7.57;100.00;102580.41;5144704;28;20058;-69
2022/11/12 03:44:29;;;;;;;7.18;2.97;;;7.60;99.90;;;7.57;100.00;102573.50;5144121;28;20057;-68
2022/11/12 03:47:21;;;;;;;4.78;2.50;;;7.70;99.90;;;7.56;100.00;102578.56;5144198;28;20066;-69
2022/11/12 03:50:13;;;;;;;6.40;2.53;;;7.60;99.90;;;7.51;100.00;102575.63;5143721;28;20066;-69
2022/11/12 03:53:03;;;;;;;3.85;2.70;;;7.60;99.90;;;7.47;100.00;102578.78;5144041;28;20054;-69
2022/11/12 03:55:54;;;;;;;3.38;2.28;;;7.50;99.90;;;7.41;100.00;102575.72;5144090;28;20153;-68
2022/11/12 03:58:44;;;;;;;4.97;2.40;;;7.50;99.90;;;7.38;100.00;102572.91;5144028;28;20116;-68
2022/11/12 04:01:35;;;;;;;6.65;2.70;;;7.50;99.90;;;7.33;100.00;102572.56;5143914;28;20057;-69
2022/11/12 04:08:34;;;;;;;4.88;2.53;;;7.50;99.90;;;7.29;100.00;102573.09;5143492;28;20117;-70
2022/11/12 04:10:46;;;;;;;4.13;2.38;;;7.30;99.90;;;7.23;100.00;102574.31;5143715;28;20113;-68
2022/11/12 04:13:37;;;;;;;4.97;3.10;;;7.30;99.90;;;7.22;100.00;102570.81;5143553;28;20054;-68
2022/11/12 04:22:46;;;;;;;5.95;3.08;;;7.40;99.90;;;7.31;100.00;102560.25;5144059;28;20065;-69
2022/11/12 04:30:14;;;;;;;5.65;2.92;;;7.40;99.90;;;7.28;100.00;102567.78;5144189;28;20090;-68
2022/11/12 04:32:04;;;;;;;5.15;2.53;;;7.40;99.90;;;7.22;100.00;102570.81;5144084;28;20058;-69
2022/11/12 04:34:57;;;;;;;4.40;2.17;;;7.30;99.90;;;7.20;100.00;102572.41;5144058;28;20133;-69
2022/11/12 04:37:48;;;;;;;6.80;2.55;;;7.30;99.90;;;7.15;100.00;102558.19;5143934;28;20057;-68
2022/11/12 04:46:55;;;;;;;6.50;3.20;;;7.10;99.90;;;6.96;100.00;102554.94;5144061;28;20515;-68
2022/11/12 04:49:46;;;;;;;6.45;2.83;;;7.10;99.90;;;6.90;100.00;102550.19;5144528;28;20050;-69
2022/11/12 04:52:37;;;;;;;5.88;2.90;;;7.00;99.90;;;6.88;100.00;102550.88;5147643;28;20054;-69
2022/11/12 04:55:28;;;;;;;3.55;2.40;;;7.00;99.90;;;6.84;100.00;102544.53;5147399;28;20531;-69
2022/11/12 04:58:19;;;;;;;5.90;2.88;;;6.90;99.90;;;6.80;100.00;102537.31;5147899;28;20102;-69
2022/11/12 05:01:09;;;;;;;5.22;3.13;;;6.90;99.90;;;6.75;100.00;102547.31;5147446;28;20051;-68
2022/11/12 05:04:00;;;;;;;4.97;2.63;;;6.90;99.90;;;6.73;100.00;102540.22;5147114;28;20530;-69
2022/11/12 05:06:53;;;;;;;6.68;3.28;;;6.80;99.90;;;6.70;100.00;102540.88;5146869;28;20065;-69
2022/11/12 05:09:45;;;;;;;7.60;3.33;;;6.80;99.90;;;6.67;100.00;102535.47;5146440;28;20423;-69
2022/11/12 05:12:37;;;;;;;5.35;3.05;;;6.80;99.90;;;6.66;100.00;102532.75;5146512;28;20046;-69
2022/11/12 05:15:27;;;;;;;7.28;3.58;;;6.80;99.90;;;6.65;100.00;102533.50;5153896;28;20116;-71
2022/11/12 05:18:18;;;;;;;6.10;3.17;;;6.80;99.90;;;6.64;100.00;102530.03;5166087;28;20057;-69
2022/11/12 05:24:13;;;;;;;6.78;3.00;;;6.80;99.90;;;6.69;100.00;102518.34;5165242;28;20062;-70
2022/11/12 05:27:09;;;;;;;5.55;2.85;;;6.80;99.90;;;6.71;100.00;102511.56;5164110;28;20049;-69
2022/11/12 05:30:00;;;;;;;5.85;3.05;;;6.90;99.90;;;6.75;100.00;102517.91;5166082;28;20526;-70
2022/11/12 05:32:51;;;;;;;6.93;3.05;;;6.90;99.90;;;6.78;100.00;102516.47;5154793;28;20077;-68
2022/11/12 05:35:41;;;;;;;5.40;3.22;;;6.90;99.90;;;6.82;100.00;102506.31;5164661;28;20200;-69
2022/11/12 05:38:31;;;;;;;7.38;2.92;;;6.90;99.90;;;6.86;100.00;102508.38;5163426;28;20061;-69
2022/11/12 05:41:22;;;;;;;7.22;3.33;;;7.00;99.90;;;6.88;100.00;102515.47;5166269;28;20058;-69
2022/11/12 05:44:14;;;;;;;7.78;3.60;;;7.00;99.90;;;6.90;100.00;102513.00;5163650;28;20154;-69
2022/11/12 05:47:04;;;;;;;7.53;4.05;;;7.00;99.90;;;6.94;100.00;102522.81;5162235;28;20100;-69
2022/11/12 05:49:55;;;;;;;8.40;3.53;;;7.10;99.90;;;6.96;100.00;102518.66;5160826;28;20054;-69
2022/11/12 05:52:45;;;;;;;7.60;3.78;;;7.10;99.90;;;6.99;100.00;102524.09;5145717;28;20054;-68
2022/11/12 05:55:36;;;;;;;8.10;4.00;;;7.10;99.90;;;6.98;100.00;102517.09;5146831;28;20070;-68
2022/11/12 05:58:26;;;;;;;8.15;4.13;;;7.10;99.90;;;6.96;100.00;102516.06;5165878;28;20496;-69
2022/11/12 06:01:19;;;;;;;7.63;3.63;;;7.10;99.90;;;6.95;100.00;102519.44;5164879;28;20050;-70
2022/11/12 06:04:11;;;;;;;6.95;3.47;;;7.10;99.90;;;6.99;100.00;102518.91;5165495;28;20408;-68
2022/11/12 06:07:02;;;;;;;8.30;3.53;;;7.20;99.90;;;6.99;100.00;102522.41;5165344;28;20042;-69
2022/11/12 06:09:53;;;;;;;6.13;3.10;;;7.10;99.90;;;6.98;100.00;102523.19;5165325;28;20126;-68
2022/11/12 06:12:43;;;;;;;7.50;4.03;;;7.10;99.90;;;6.98;100.00;102525.78;5165512;28;20065;-69
2022/11/12 06:15:34;;;;;;;9.35;3.78;;;7.10;99.90;;;6.98;100.00;102522.28;5165800;28;20167;-69
2022/11/12 06:18:26;;;;;;;7.28;3.60;;;7.10;99.90;;;6.98;100.00;102532.66;5165288;28;20104;-69
2022/11/12 06:21:20;;;;;;;7.78;3.75;;;7.10;99.90;;;7.00;100.00;102536.25;5165427;28;20110;-69
2022/11/12 06:24:11;;;;;;;7.38;3.40;;;7.10;99.90;;;6.99;100.00;102532.78;5165296;28;20046;-69
2022/11/12 06:27:02;;;;;;;6.97;3.42;;;7.10;99.90;;;7.00;100.00;102536.25;5165561;28;20113;-69
2022/11/12 06:29:53;;;;;;;6.05;3.30;;;7.20;99.90;;;6.99;100.00;102540.56;5165002;28;20069;-68
2022/11/12 06:32:46;;;;;;;6.30;3.15;;;7.10;99.90;;;7.00;100.00;102541.44;5164968;28;20517;-70
2022/11/12 06:35:38;;;;;;;7.03;3.88;;;7.10;99.90;;;6.96;100.00;102535.09;5165008;28;20454;-68
2022/11/12 06:38:30;;;;;;;6.75;3.15;;;7.10;99.90;;;6.97;100.00;102541.19;5164981;28;20053;-67
2022/11/12 06:41:20;;;;;;;6.80;3.20;;;7.10;99.90;;;6.96;100.00;102542.00;5164919;28;20057;-68
2022/11/12 06:44:11;;;;;;;6.40;3.30;;;7.10;99.90;;;6.98;100.00;102540.44;5164744;28;20053;-69
2022/11/12 06:47:02;;;;;;;6.25;3.38;;;7.10;99.90;;;6.97;100.00;102548.97;5165047;28;20050;-69
2022/11/12 06:49:53;;;;;;;7.75;4.10;;;7.10;99.90;;;6.98;100.00;102553.41;5165072;28;20053;-69
2022/11/12 06:52:45;;;;;;;6.03;3.35;;;7.10;99.90;;;7.01;100.00;102554.53;5165063;28;20583;-69
2022/11/12 06:55:35;;;;;;;7.43;3.40;;;7.20;99.90;;;7.04;100.00;102548.66;5164883;28;20101;-69
2022/11/12 06:58:26;;;;;;;8.23;3.63;;;7.20;99.90;;;7.02;100.00;102550.25;5164738;28;20065;-69
2022/11/12 07:01:17;;;;;;;7.72;3.97;;;7.20;99.90;;;6.99;100.00;102550.91;5164574;28;20173;-68
2022/11/12 07:04:09;;;;;;;8.07;4.03;;;7.20;99.90;;;6.98;100.00;102554.31;5163677;28;20046;-58
2022/11/12 07:06:59;;;;;;;7.65;4.10;;;7.20;99.90;;;7.00;100.00;102567.38;5163718;28;20148;-58
2022/11/12 07:09:51;;;;;;;9.80;4.57;;;7.20;99.90;;;7.04;100.00;102564.22;5162486;28;20061;-58
2022/11/12 07:12:42;;;;;;;8.68;5.85;;;7.20;99.90;;;7.08;100.00;102571.47;5162878;28;20050;-59
2022/11/12 07:15:33;;;;;;;8.00;4.80;;;7.30;99.90;;;7.13;100.00;102570.13;5163285;28;20439;-58
2022/11/12 07:18:24;;;;;;;8.70;4.55;;;7.30;99.90;;;7.12;100.00;102573.50;5159571;23;20043;-56
2022/11/12 07:21:20;;;;;;;25.08;10.52;;;7.30;99.90;;;7.11;100.00;102569.13;5147011;28;21195;-58
2022/11/12 07:24:11;;;;;;;14.88;7.80;;;7.30;99.90;;;7.09;100.00;102568.06;5150856;28;20065;-56
2022/11/12 07:27:03;;;;;;;13.00;7.55;;;7.30;99.90;;;7.10;100.00;102575.06;5160536;28;20601;-57
2022/11/12 07:29:54;;;;;;;13.85;7.55;;;7.30;99.90;;;7.16;100.00;102580.72;5160163;28;20061;-58
2022/11/12 07:32:46;;;;;;;11.48;6.75;;;7.30;99.90;;;7.17;100.00;102581.63;5160696;28;20065;-57
2022/11/12 07:35:36;;;;;;;14.43;7.47;;;7.40;99.90;;;7.21;100.00;102579.41;5161346;28;20136;-57
2022/11/12 07:38:29;;;;;;;24.65;11.55;;;7.40;99.90;;;7.27;100.00;102581.56;5161429;28;20046;-57
2022/11/12 07:41:23;;;;;;;21.95;10.30;;;7.50;99.90;;;7.31;100.00;102581.03;5160910;28;20042;-58
2022/11/12 07:44:18;;;;;;;13.13;7.07;;;7.50;99.90;;;7.26;100.00;102578.06;5147927;28;20050;-58
2022/11/12 07:47:08;;;;;;;;;;;7.50;99.90;;;7.30;100.00;102568.81;5158074;28;20443;-57
2022/11/12 07:49:59;;;;;;;12.98;7.10;;;7.50;99.90;;;7.33;100.00;102577.75;5155476;28;20421;-55
2022/11/12 07:52:50;;;;;;;12.68;5.45;;;7.60;99.90;;;7.33;100.00;102579.44;5163019;28;20054;-59
2022/11/12 07:55:40;;;;;;;12.00;5.80;;;7.60;99.90;;;7.40;100.00;102575.63;5163199;28;20054;-57
2022/11/12 07:58:33;;;;;;;17.25;7.25;;;7.60;99.90;;;7.48;100.00;102583.19;5162805;28;20136;-58
2022/11/12 08:01:30;;;;;;;16.00;7.10;;;7.70;99.90;;;7.59;100.00;102584.00;5163309;28;20162;-57
2022/11/12 08:04:23;;;;;;;9.80;5.22;;;7.80;99.90;;;7.68;100.00;102578.59;5162926;28;20503;-57
2022/11/12 08:07:15;;;;;;;10.05;4.53;;;7.90;99.90;;;7.74;100.00;102590.31;5163056;28;20069;-59
2022/11/12 08:10:07;;;;;;;12.63;5.55;;;7.90;99.90;;;7.81;100.00;102592.59;5162507;28;20192;-58
2022/11/12 08:12:58;;;;;;;9.80;4.47;;;8.00;99.90;;;7.88;100.00;102589.66;5161366;28;20128;-57
2022/11/12 08:15:48;;;;;;;11.05;5.75;;;8.00;99.90;;;7.89;100.00;102586.28;5162670;28;20053;-58
2022/11/12 08:18:41;;;;;;;10.50;5.05;;;8.10;99.90;;;7.96;100.00;102590.25;5162197;28;20060;-57
2022/11/12 08:21:31;;;;;;;9.77;4.85;;;8.20;99.90;;;8.06;100.00;102587.50;5163034;28;20081;-58
2022/11/12 08:24:22;;;;;;;10.07;5.28;;;8.20;99.90;;;8.10;100.00;102592.16;5162935;28;20057;-58
2022/11/12 08:27:13;;;;;;;8.23;4.60;;;8.30;99.90;;;8.17;100.00;102588.31;5166797;28;20061;-60
2022/11/12 08:30:04;;;;;;;7.93;3.58;;;8.30;99.90;;;8.26;100.00;102583.78;5166313;28;20375;-58
2022/11/12 08:33:01;;;;;;;9.65;4.38;;;8.40;99.90;;;8.33;100.00;102578.22;5166748;28;20046;-58
2022/11/12 08:35:54;;;;;;;11.77;5.50;;;8.50;99.90;;;8.43;100.00;102578.13;5167155;28;20427;-57
2022/11/12 08:38:45;;;;;;;7.05;4.00;;;8.60;99.90;;;8.57;100.00;102580.81;5166341;28;20053;-55
2022/11/12 08:41:36;;;;;;;7.30;3.28;;;8.70;99.90;;;8.74;100.00;102585.53;5166831;28;20104;-58
2022/11/12 08:44:27;;;;;;;7.22;3.50;;;8.80;99.90;;;8.91;100.00;102573.69;5166783;28;20069;-59
2022/11/12 08:47:17;;;;;;;8.05;4.15;;;9.00;99.90;;;9.17;100.00;102572.88;5166695;28;20077;-54
2022/11/12 08:50:09;;;;;;;12.73;6.75;;;9.20;99.90;;;9.42;100.00;102578.06;5160706;28;20061;-57
2022/11/12 08:53:03;;;;;;;9.15;4.32;;;9.40;99.90;;;9.61;100.00;102583.72;5157485;28;20046;-59
2022/11/12 08:55:54;;;;;;;7.05;3.90;;;9.60;99.90;;;9.83;100.00;102586.03;5151771;28;20153;-59
2022/11/12 08:58:45;;;;;;;6.93;3.70;;;9.80;99.90;;;10.07;100.00;102586.75;5159668;28;20062;-57
2022/11/12 09:01:36;;;;;;;6.30;3.45;;;10.10;99.90;;;10.36;100.00;102586.03;5153362;28;20066;-59
2022/11/12 09:04:27;;;;;;;6.45;3.13;;;10.30;99.90;;;10.47;100.00;102589.34;5166421;28;20057;-55
2022/11/12 09:07:18;;;;;;;7.57;3.60;;;10.40;99.90;;;10.63;100.00;102591.19;5160776;28;20577;-59
2022/11/12 09:10:10;;;;;;;7.13;3.88;;;10.50;99.90;;;10.88;100.00;102586.72;5166653;28;20050;-60
2022/11/12 09:13:01;;;;;;;6.38;3.13;;;10.80;99.90;;;11.16;100.00;102591.03;5166430;28;20519;-59
2022/11/12 09:15:52;;;;;;;7.45;4.10;;;11.00;99.90;;;11.29;100.00;102593.59;5142128;28;20522;-60
2022/11/12 09:18:42;;;;;;;5.95;3.50;;;11.10;99.90;;;11.42;100.00;102596.13;5148414;28;20565;-60
2022/11/12 09:21:33;;;;;;;8.95;4.32;;;11.30;99.90;;;11.62;100.00;102602.53;5166092;28;20055;-60
2022/11/12 09:24:23;;;;;;;7.32;3.53;;;11.50;99.90;;;11.76;100.00;102611.19;5166242;28;20427;-60
2022/11/12 09:27:15;;;;;;;7.00;3.35;;;11.60;99.90;;;11.98;100.00;102606.41;5166175;28;20061;-59
2022/11/12 09:30:08;;;;;;;6.90;3.05;;;11.80;99.90;;;12.44;100.00;102601.16;5162167;28;20090;-57
2022/11/12 09:32:58;;;;;;;4.85;2.60;;;12.30;99.90;;;13.20;100.00;102607.06;5151024;28;20117;-58
2022/11/12 09:35:50;;;;;;;5.70;3.63;;;13.10;99.90;;;13.72;100.00;102594.97;5163800;28;20128;-58
2022/11/12 09:38:41;;;;;;;5.28;2.95;;;13.70;99.90;;;13.93;97.41;102594.22;5152204;28;20185;-58
2022/11/12 09:41:36;;;;;;;7.03;4.30;;;14.00;99.90;;;13.86;93.35;102603.50;5155575;28;20102;-57
2022/11/12 09:44:29;;;;;;;6.82;3.28;;;13.90;99.90;;;13.67;91.51;102598.16;5138633;28;20137;-59
2022/11/12 09:47:27;;;;;;;6.38;3.10;;;13.70;99.90;;;13.55;92.40;102601.06;5165985;28;20503;-57
2022/11/12 09:50:24;;;;;;;7.13;3.40;;;13.50;99.90;;;13.43;92.52;102597.78;5166111;28;20057;-60
2022/11/12 09:53:19;;;;;;;6.72;3.40;;;13.40;99.90;;;13.36;93.09;102606.16;5165930;28;20161;-59
2022/11/12 09:56:13;;;;;;;6.60;2.97;;;13.30;99.90;;;13.32;93.70;102607.75;5165736;28;20128;-58
2022/11/12 09:59:10;;;;;;;5.43;2.92;;;13.20;99.90;;;13.28;93.00;102596.19;5165043;28;20054;-59
2022/11/12 10:02:18;;;;;;;5.55;2.72;;;13.20;99.90;;;13.30;93.45;102597.19;5165762;28;20486;-61
2022/11/12 10:05:26;;;;;;;7.18;3.50;;;13.20;99.90;;;13.42;94.29;102589.03;5165561;28;20112;-57
2022/11/12 10:08:38;;;;;;;8.20;4.28;;;13.30;99.90;;;13.54;94.89;102584.44;5165197;28;20054;-60
2022/11/12 10:19:22;;;;;;;6.72;3.15;;;13.70;99.90;;;14.20;93.46;102569.34;5137691;28;20057;-60
2022/11/12 10:22:26;;;;;;;7.60;3.72;;;14.00;99.90;;;14.10;91.33;102562.78;5125156;29;20100;-58
2022/11/12 10:25:19;;;;;;;7.65;3.28;;;14.00;99.90;;;14.01;92.00;102566.66;5125219;29;20074;-59
2022/11/12 10:28:27;;;;;;;8.10;4.57;;;13.90;99.90;;;13.93;93.03;102571.53;5154178;28;20065;-57
2022/11/12 10:31:21;;;;;;;6.85;3.85;;;13.90;99.90;;;13.95;95.54;102572.50;5156321;28;20538;-58
2022/11/12 10:34:17;;;;;;;7.00;3.63;;;13.80;99.90;;;14.21;97.32;102560.66;5165336;28;20130;-57
2022/11/12 10:37:14;;;;;;;6.53;3.55;;;14.10;99.90;;;14.28;92.83;102562.75;5163605;28;20050;-57
2022/11/12 10:40:29;;;;;;;7.05;3.60;;;14.20;99.90;;;14.25;92.87;102551.22;5160374;28;20058;-55
2022/11/12 10:43:23;;;;;;;6.97;3.40;;;14.10;99.90;;;14.16;93.29;102556.94;5143606;28;20607;-56
2022/11/12 10:46:20;;;;;;;5.78;2.92;;;14.00;99.90;;;14.09;93.57;102549.59;5143502;28;20046;-61
2022/11/12 10:49:25;;;;;;;5.07;2.85;;;14.00;99.90;;;14.05;94.22;102545.91;5144386;28;20432;-58
2022/11/12 10:52:23;;;;;;;4.60;2.60;;;13.90;99.90;;;14.11;95.21;102546.22;5144817;28;20140;-56
2022/11/12 10:55:20;;;;;;;5.07;2.50;;;13.90;99.90;;;14.18;95.63;102539.53;5145252;28;20057;-57
2022/11/12 10:58:18;;;;;;;5.18;3.13;;;14.00;99.90;;;14.21;95.09;102547.53;5144996;28;20047;-56
2022/11/12 11:01:16;;;;;;;8.13;3.85;;;14.00;99.90;;;14.22;95.44;102535.34;5145381;28;20516;-57
2022/11/12 11:04:19;;;;;;;7.88;5.15;;;14.00;99.90;;;14.19;94.97;102530.81;5145138;28;20096;-59
2022/11/12 11:07:23;;;;;;;5.47;3.97;;;14.00;99.90;;;14.21;95.23;102538.75;5144623;28;20049;-56
2022/11/12 11:10:26;;;;;;;6.60;3.17;;;14.00;99.90;;;14.26;95.24;102532.03;5144919;28;20538;-57
2022/11/12 11:13:22;;;;;;;8.18;3.25;;;14.10;99.90;;;14.31;95.16;102541.00;5144640;28;20051;-56
2022/11/12 11:16:15;;;;;;;4.80;2.80;;;14.00;99.90;;;14.33;95.78;102529.75;5144136;28;20054;-60
2022/11/12 11:19:06;;;;;;;6.05;3.30;;;14.10;99.90;;;14.37;95.61;102531.69;5144034;28;20066;-60
2022/11/12 11:22:10;;;;;;;4.70;2.42;;;14.20;99.90;;;14.51;96.07;102534.09;5143842;28;20058;-60
2022/11/12 11:25:19;;;;;;;5.00;2.60;;;14.30;99.90;;;14.62;95.69;102531.16;5143777;28;20078;-60
2022/11/12 11:28:22;;;;;;;6.72;2.55;;;14.40;99.90;;;14.78;95.22;102529.22;5144075;28;20139;-60
2022/11/12 11:31:23;;;;;;;5.82;3.13;;;14.50;99.90;;;14.77;94.87;102525.69;5144090;28;20055;-59
2022/11/12 11:34:32;;;;;;;5.47;3.30;;;14.50;99.90;;;14.74;94.35;102519.41;5143973;28;20057;-60
2022/11/12 11:37:28;;;;;;;6.75;2.88;;;14.50;99.90;;;14.82;97.73;102511.03;5144881;28;20125;-60
2022/11/12 11:40:29;;;;;;;4.82;2.65;;;14.70;99.90;;;15.12;98.25;102510.59;5144392;28;20516;-62
2022/11/12 11:43:39;;;;;;;5.25;3.10;;;14.90;99.90;;;15.28;95.74;102501.66;5143967;28;20133;-63
2022/11/12 11:46:43;;;;;;;8.02;4.57;;;15.20;99.90;;;15.38;94.98;102498.56;5144081;28;20523;-61
2022/11/12 11:50:11;;;;;;;6.43;3.00;;;15.30;99.90;;;15.51;92.73;102497.34;5143825;28;20069;-59
2022/11/12 11:53:21;;;;;;;7.03;3.40;;;15.40;99.90;;;15.27;91.40;102500.75;5143589;28;20050;-58
2022/11/12 11:56:20;;;;;;;6.03;3.38;;;15.20;99.90;;;15.21;92.77;102497.88;5143611;28;20550;-62
2022/11/12 11:59:30;;;;;;;5.90;3.10;;;15.10;99.90;;;15.17;93.13;102498.56;5144218;28;20149;-60
2022/11/12 12:02:39;;;;;;;5.90;3.20;;;15.10;99.90;;;15.14;93.51;102501.06;5147862;28;20049;-60
2022/11/12 12:05:43;;;;;;;6.18;3.10;;;15.00;99.90;;;15.10;93.44;102501.75;5148017;28;20085;-63
2022/11/12 12:08:54;;;;;;;5.45;2.70;;;15.00;99.90;;;15.02;94.48;102497.91;5148069;28;20097;-60
2022/11/12 12:11:55;;;;;;;6.80;2.78;;;14.90;99.90;;;15.00;94.56;102505.72;5148498;28;20070;-59
2022/11/12 12:15:00;;;;;;;4.15;2.42;;;14.80;99.90;;;15.06;94.71;102497.19;5148272;28;20050;-58
2022/11/12 12:18:01;;;;;;;4.82;2.72;;;14.80;99.90;;;15.07;94.40;102501.63;5147636;28;20050;-60
2022/11/12 12:20:59;;;;;;;5.35;3.05;;;14.80;99.90;;;15.03;94.19;102502.31;5147658;28;20524;-61
2022/11/12 12:23:56;;;;;;;6.95;3.17;;;14.80;99.90;;;14.98;94.71;102488.09;5154772;28;20046;-59
2022/11/12 12:26:52;;;;;;;5.95;2.78;;;14.80;99.90;;;15.00;95.09;102489.06;5139807;28;20607;-60
2022/11/12 12:29:48;;;;;;;6.68;3.20;;;14.80;99.90;;;14.95;93.99;102480.97;5161764;28;20129;-62
2022/11/12 12:32:46;;;;;;;7.43;3.15;;;14.80;99.90;;;14.93;94.54;102472.13;5165215;28;20049;-60
2022/11/12 12:35:52;;;;;;;7.38;3.60;;;14.80;99.90;;;14.88;94.88;102469.31;5152352;28;20131;-60
2022/11/12 12:38:48;;;;;;;6.05;3.20;;;14.70;99.90;;;14.89;95.41;102468.47;5148562;28;20069;-60
2022/11/12 12:41:50;;;;;;;6.25;2.88;;;14.70;99.90;;;14.98;95.29;102467.06;5165313;28;20057;-59